createdAt,value
2022-08-05T00:00:02.010Z,43.95
2022-08-05T00:00:46.210Z,43.80
2022-08-05T00:01:27.718Z,43.93
2022-08-05T00:02:07.859Z,43.95
2022-08-05T00:02:49.108Z,43.98
2022-08-05T00:03:24.239Z,43.69
2022-08-05T00:04:00.195Z,44.10
2022-08-05T00:04:32.554Z,44.02
2022-08-05T00:05:07.116Z,44.07
2022-08-05T00:06:22.070Z,44.19
2022-08-05T00:06:54.395Z,43.72
2022-08-05T00:07:59.732Z,43.95
2022-08-05T00:08:35.694Z,43.83
2022-08-05T00:09:13.027Z,44.05
2022-08-05T00:09:48.112Z,44.07
2022-08-05T00:10:20.679Z,43.97
2022-08-05T00:11:02.781Z,44.30
2022-08-05T00:11:48.393Z,44.24
2022-08-05T00:12:24.782Z,43.68
2022-08-05T00:12:59.823Z,43.97
2022-08-05T00:13:39.368Z,44.29
2022-08-05T00:14:17.027Z,44.19
2022-08-05T00:14:51.905Z,43.76
2022-08-05T00:15:56.100Z,44.07
2022-08-05T00:16:36.122Z,43.88
2022-08-05T00:17:18.797Z,44.06
2022-08-05T00:18:03.521Z,43.83
2022-08-05T00:18:36.042Z,44.05
2022-08-05T00:19:12.931Z,44.04
2022-08-05T00:19:45.808Z,44.07
2022-08-05T00:20:35.400Z,43.95
2022-08-05T00:21:10.426Z,43.92
2022-08-05T00:21:43.490Z,43.95
2022-08-05T00:22:17.957Z,44.00
2022-08-05T00:22:57.481Z,43.88
2022-08-05T00:23:46.408Z,43.90
2022-08-05T00:24:31.230Z,43.71
2022-08-05T00:25:08.411Z,44.08
2022-08-05T00:25:46.099Z,43.81
2022-08-05T00:26:19.921Z,43.81
2022-08-05T00:26:55.114Z,43.78
2022-08-05T00:27:36.280Z,43.88
2022-08-05T00:28:12.661Z,43.62
2022-08-05T00:28:49.217Z,44.09
2022-08-05T00:29:25.387Z,43.96
2022-08-05T00:30:03.362Z,43.87
2022-08-05T00:30:35.983Z,43.96
2022-08-05T00:31:08.795Z,43.74
2022-08-05T00:32:10.618Z,43.61
2022-08-05T00:32:38.394Z,43.87
2022-08-05T00:33:15.544Z,44.17
2022-08-05T00:34:55.319Z,43.85
2022-08-05T00:35:06.897Z,43.69
2022-08-05T00:36:14.821Z,43.95
2022-08-05T00:37:12.979Z,43.93
2022-08-05T00:37:50.510Z,43.85
2022-08-05T00:38:28.710Z,43.78
2022-08-05T00:39:04.592Z,43.87
2022-08-05T00:39:43.989Z,43.69
2022-08-05T00:40:33.923Z,43.97
2022-08-05T00:41:11.697Z,43.88
2022-08-05T00:41:54.868Z,43.77
2022-08-05T00:42:32.478Z,43.70
2022-08-05T00:43:08.612Z,43.66
2022-08-05T00:43:50.260Z,43.76
2022-08-05T00:44:23.253Z,43.59
2022-08-05T00:45:05.802Z,43.97
2022-08-05T00:45:43.629Z,43.86
2022-08-05T00:46:16.517Z,43.68
2022-08-05T00:46:53.947Z,43.90
2022-08-05T00:47:56.420Z,43.84
2022-08-05T00:48:31.691Z,43.69
2022-08-05T00:49:04.234Z,43.86
2022-08-05T00:49:44.661Z,43.87
2022-08-05T00:50:26.645Z,43.66
2022-08-05T00:50:59.103Z,43.74
2022-08-05T00:51:50.425Z,43.81
2022-08-05T00:52:28.298Z,43.64
2022-08-05T00:53:01.469Z,44.00
2022-08-05T00:54:00.920Z,43.90
2022-08-05T00:54:30.166Z,44.01
2022-08-05T00:55:02.981Z,43.69
2022-08-05T00:55:43.509Z,43.58
2022-08-05T00:56:17.346Z,43.77
2022-08-05T00:56:57.874Z,43.73
2022-08-05T00:57:31.756Z,43.57
2022-08-05T00:58:11.633Z,43.76
2022-08-05T00:58:46.931Z,44.07
2022-08-05T00:59:22.416Z,43.64
2022-08-05T00:59:54.759Z,43.74
2022-08-05T01:00:27.857Z,43.69
2022-08-05T01:01:03.112Z,43.67
2022-08-05T01:01:48.769Z,43.64
2022-08-05T01:02:21.782Z,43.52
2022-08-05T01:03:00.531Z,43.37
2022-08-05T01:03:34.087Z,43.61
2022-08-05T01:04:14.155Z,43.54
2022-08-05T01:04:50.552Z,43.71
2022-08-05T01:05:23.950Z,43.64
2022-08-05T01:05:59.936Z,43.99
2022-08-05T01:06:33.016Z,43.71
2022-08-05T01:07:05.901Z,43.71
2022-08-05T01:08:40.494Z,43.69
2022-08-05T01:08:44.548Z,43.81
2022-08-05T01:09:20.026Z,43.82
2022-08-05T01:09:55.746Z,44.02
2022-08-05T01:10:33.426Z,43.73
2022-08-05T01:11:10.990Z,43.49
2022-08-05T01:11:49.278Z,43.50
2022-08-05T01:12:22.203Z,43.62
2022-08-05T01:13:03.249Z,43.54
2022-08-05T01:13:58.494Z,43.65
2022-08-05T01:14:38.108Z,43.61
2022-08-05T01:15:35.708Z,43.74
2022-08-05T01:16:13.902Z,43.85
2022-08-05T01:17:00.491Z,43.98
2022-08-05T01:17:40.082Z,43.71
2022-08-05T01:18:23.170Z,43.92
2022-08-05T01:19:02.654Z,43.61
2022-08-05T01:20:00.815Z,43.74
2022-08-05T01:20:43.822Z,43.41
2022-08-05T01:21:38.095Z,43.67
2022-08-05T01:22:31.973Z,43.75
2022-08-05T01:23:14.522Z,43.73
2022-08-05T01:24:03.454Z,43.57
2022-08-05T01:25:05.479Z,43.57
2022-08-05T01:26:09.697Z,43.71
2022-08-05T01:26:56.422Z,43.62
2022-08-05T01:27:55.884Z,43.35
2022-08-05T01:28:36.517Z,43.31
2022-08-05T01:29:16.608Z,43.45
2022-08-05T01:29:58.749Z,43.55
2022-08-05T01:30:36.830Z,43.48
2022-08-05T01:31:11.694Z,43.57
2022-08-05T01:31:46.957Z,43.83
2022-08-05T01:32:24.238Z,44.19
2022-08-05T01:33:00.551Z,43.87
2022-08-05T01:33:35.958Z,44.09
2022-08-05T01:34:14.695Z,43.63
2022-08-05T01:34:53.319Z,43.90
2022-08-05T01:35:51.318Z,44.04
2022-08-05T01:36:28.134Z,43.92
2022-08-05T01:37:04.740Z,44.08
2022-08-05T01:37:44.294Z,43.94
2022-08-05T01:38:27.100Z,44.00
2022-08-05T01:39:04.322Z,43.79
2022-08-05T01:39:47.033Z,44.08
2022-08-05T01:40:27.945Z,44.19
2022-08-05T01:41:01.909Z,44.00
2022-08-05T01:41:36.302Z,43.92
2022-08-05T01:42:16.291Z,43.78
2022-08-05T01:42:52.383Z,43.65
2022-08-05T01:43:25.253Z,43.90
2022-08-05T01:44:00.423Z,43.66
2022-08-05T01:44:34.455Z,43.88
2022-08-05T01:45:09.039Z,43.82
2022-08-05T01:45:44.770Z,43.79
2022-08-05T01:46:42.488Z,43.76
2022-08-05T01:47:23.407Z,43.83
2022-08-05T01:47:56.165Z,43.76
2022-08-05T01:48:32.559Z,44.14
2022-08-05T01:49:23.330Z,43.95
2022-08-05T01:50:01.276Z,43.45
2022-08-05T01:50:41.162Z,44.12
2022-08-05T01:51:24.414Z,43.78
2022-08-05T01:52:12.379Z,43.72
2022-08-05T01:52:53.640Z,43.69
2022-08-05T01:53:56.988Z,43.97
2022-08-05T01:54:25.555Z,43.69
2022-08-05T01:55:00.593Z,43.95
2022-08-05T01:55:36.277Z,43.45
2022-08-05T01:56:12.495Z,43.66
2022-08-05T01:58:10.213Z,43.96
2022-08-05T01:58:11.438Z,43.59
2022-08-05T01:58:45.023Z,43.95
2022-08-05T01:59:26.650Z,43.82
2022-08-05T02:00:02.011Z,43.60
2022-08-05T02:00:40.727Z,43.49
2022-08-05T02:01:23.307Z,43.44
2022-08-05T02:01:57.968Z,43.57
2022-08-05T02:02:32.802Z,43.63
2022-08-05T02:03:24.396Z,43.73
2022-08-05T02:04:02.476Z,43.60
2022-08-05T02:04:40.633Z,43.63
2022-08-05T02:05:14.096Z,43.61
2022-08-05T02:05:48.393Z,43.75
2022-08-05T02:06:36.967Z,43.49
2022-08-05T02:07:11.110Z,43.42
2022-08-05T02:08:01.019Z,43.27
2022-08-05T02:08:40.868Z,43.56
2022-08-05T02:09:28.130Z,43.35
2022-08-05T02:10:03.489Z,43.46
2022-08-05T02:10:41.063Z,43.54
2022-08-05T02:11:23.696Z,43.54
2022-08-05T02:12:01.231Z,43.69
2022-08-05T02:12:38.031Z,43.85
2022-08-05T02:13:18.185Z,43.54
2022-08-05T02:14:05.906Z,43.22
2022-08-05T02:14:42.011Z,43.77
2022-08-05T02:15:23.489Z,43.43
2022-08-05T02:16:02.278Z,43.32
2022-08-05T02:16:41.883Z,43.35
2022-08-05T02:18:27.608Z,43.61
2022-08-05T02:18:31.017Z,43.20
2022-08-05T02:19:11.844Z,43.45
2022-08-05T02:19:50.227Z,43.28
2022-08-05T02:20:26.454Z,43.39
2022-08-05T02:21:04.290Z,43.38
2022-08-05T02:21:46.790Z,43.35
2022-08-05T02:22:27.301Z,43.40
2022-08-05T02:23:02.247Z,43.36
2022-08-05T02:23:39.319Z,43.54
2022-08-05T02:24:23.206Z,43.34
2022-08-05T02:25:04.793Z,43.25
2022-08-05T02:25:49.706Z,43.44
2022-08-05T02:26:29.369Z,43.31
2022-08-05T02:27:09.931Z,43.37
2022-08-05T02:27:59.634Z,43.29
2022-08-05T02:28:41.638Z,43.60
2022-08-05T02:29:26.126Z,43.15
2022-08-05T02:30:17.146Z,43.34
2022-08-05T02:30:56.653Z,43.44
2022-08-05T02:31:34.646Z,42.95
2022-08-05T02:32:09.049Z,43.23
2022-08-05T02:32:44.146Z,43.28
2022-08-05T02:33:24.576Z,43.47
2022-08-05T02:34:11.927Z,43.38
2022-08-05T02:34:54.826Z,43.36
2022-08-05T02:35:33.229Z,43.06
2022-08-05T02:36:13.660Z,43.57
2022-08-05T02:36:53.928Z,43.53
2022-08-05T02:37:27.345Z,43.11
2022-08-05T02:38:04.941Z,43.33
2022-08-05T02:38:38.177Z,43.16
2022-08-05T02:39:14.285Z,43.49
2022-08-05T02:39:47.831Z,43.51
2022-08-05T02:40:27.527Z,43.25
2022-08-05T02:41:00.761Z,43.32
2022-08-05T02:42:01.347Z,43.48
2022-08-05T02:42:37.058Z,43.35
2022-08-05T02:43:10.049Z,43.28
2022-08-05T02:44:06.029Z,43.61
2022-08-05T02:44:41.778Z,43.38
2022-08-05T02:45:16.550Z,43.28
2022-08-05T02:45:52.190Z,43.11
2022-08-05T02:46:29.686Z,43.30
2022-08-05T02:47:04.151Z,43.35
2022-08-05T02:48:07.609Z,43.32
2022-08-05T02:48:32.959Z,43.08
2022-08-05T02:49:06.231Z,43.59
2022-08-05T02:49:47.415Z,43.28
2022-08-05T02:50:22.062Z,43.30
2022-08-05T02:50:56.091Z,43.47
2022-08-05T02:52:02.967Z,42.99
2022-08-05T02:52:29.403Z,43.21
2022-08-05T02:53:05.702Z,43.23
2022-08-05T02:53:44.378Z,43.17
2022-08-05T02:54:36.072Z,43.20
2022-08-05T02:55:12.953Z,43.20
2022-08-05T02:55:54.905Z,43.13
2022-08-05T02:56:32.984Z,43.02
2022-08-05T02:58:09.763Z,43.23
2022-08-05T02:58:10.420Z,43.43
2022-08-05T02:58:55.501Z,43.24
2022-08-05T02:59:29.203Z,43.25
2022-08-05T03:00:19.035Z,43.34
2022-08-05T03:00:55.170Z,42.99
2022-08-05T03:01:28.008Z,42.96
2022-08-05T03:02:06.490Z,43.22
2022-08-05T03:02:41.183Z,43.18
2022-08-05T03:03:17.373Z,43.02
2022-08-05T03:04:03.133Z,43.37
2022-08-05T03:04:44.949Z,43.50
2022-08-05T03:05:21.847Z,43.22
2022-08-05T03:06:54.725Z,43.37
2022-08-05T03:07:40.531Z,43.13
2022-08-05T03:08:08.804Z,43.18
2022-08-05T03:08:44.670Z,43.20
2022-08-05T03:09:17.845Z,43.27
2022-08-05T03:10:10.616Z,43.18
2022-08-05T03:11:53.611Z,43.17
2022-08-05T03:11:55.463Z,43.11
2022-08-05T03:12:35.761Z,43.30
2022-08-05T03:13:17.763Z,43.43
2022-08-05T03:14:02.863Z,43.05
2022-08-05T03:14:45.733Z,43.43
2022-08-05T03:15:23.635Z,43.06
2022-08-05T03:15:59.313Z,42.92
2022-08-05T03:16:31.853Z,42.93
2022-08-05T03:17:08.966Z,42.89
2022-08-05T03:17:44.835Z,43.17
2022-08-05T03:18:17.560Z,43.22
2022-08-05T03:18:57.150Z,43.19
2022-08-05T03:19:34.199Z,43.69
2022-08-05T03:20:10.429Z,42.99
2022-08-05T03:20:48.541Z,43.14
2022-08-05T03:21:28.862Z,43.30
2022-08-05T03:22:16.639Z,43.35
2022-08-05T03:22:57.074Z,43.40
2022-08-05T03:23:30.316Z,43.32
2022-08-05T03:24:04.239Z,43.08
2022-08-05T03:24:39.328Z,43.29
2022-08-05T03:26:03.638Z,43.23
2022-08-05T03:26:31.582Z,43.43
2022-08-05T03:27:06.736Z,43.09
2022-08-05T03:27:59.574Z,43.35
2022-08-05T03:28:42.420Z,43.22
2022-08-05T03:29:17.317Z,43.35
2022-08-05T03:30:07.384Z,43.32
2022-08-05T03:30:46.571Z,43.37
2022-08-05T03:31:56.244Z,43.39
2022-08-05T03:32:16.488Z,43.16
2022-08-05T03:32:51.075Z,43.33
2022-08-05T03:33:49.251Z,43.29
2022-08-05T03:34:19.332Z,43.16
2022-08-05T03:34:59.464Z,43.35
2022-08-05T03:35:34.106Z,43.21
2022-08-05T03:36:17.635Z,43.23
2022-08-05T03:37:06.652Z,43.32
2022-08-05T03:37:41.691Z,43.32
2022-08-05T03:38:23.989Z,43.46
2022-08-05T03:39:13.009Z,43.37
2022-08-05T03:40:01.270Z,43.33
2022-08-05T03:40:40.511Z,43.20
2022-08-05T03:41:15.574Z,42.96
2022-08-05T03:41:48.227Z,42.93
2022-08-05T03:42:27.041Z,43.20
2022-08-05T03:43:15.940Z,43.22
2022-08-05T03:44:11.240Z,43.56
2022-08-05T03:44:46.935Z,43.22
2022-08-05T03:45:22.526Z,42.88
2022-08-05T03:45:59.070Z,43.13
2022-08-05T03:46:40.190Z,42.92
2022-08-05T03:47:13.614Z,42.98
2022-08-05T03:47:46.112Z,43.23
2022-08-05T03:48:22.797Z,43.02
2022-08-05T03:48:55.562Z,43.48
2022-08-05T03:49:51.100Z,42.82
2022-08-05T03:50:24.654Z,43.08
2022-08-05T03:52:35.226Z,43.15
2022-08-05T03:52:38.840Z,43.30
2022-08-05T03:55:34.229Z,43.37
2022-08-05T03:55:49.742Z,43.04
2022-08-05T03:55:51.035Z,43.24
2022-08-05T03:56:11.921Z,43.26
2022-08-05T03:56:50.031Z,43.23
2022-08-05T03:57:41.994Z,43.06
2022-08-05T03:58:17.215Z,43.13
2022-08-05T03:58:51.522Z,43.06
2022-08-05T03:59:29.245Z,42.93
2022-08-05T04:00:21.987Z,43.13
2022-08-05T04:01:03.927Z,43.07
2022-08-05T04:01:40.292Z,43.13
2022-08-05T04:02:17.375Z,43.13
2022-08-05T04:02:58.400Z,42.96
2022-08-05T04:03:36.075Z,43.17
2022-08-05T04:04:11.094Z,43.23
2022-08-05T04:04:46.978Z,43.17
2022-08-05T04:05:20.198Z,43.39
2022-08-05T04:05:55.885Z,43.08
2022-08-05T04:06:33.066Z,43.20
2022-08-05T04:07:06.680Z,43.09
2022-08-05T04:07:57.301Z,43.13
2022-08-05T04:08:36.411Z,43.18
2022-08-05T04:09:09.599Z,43.30
2022-08-05T04:09:53.665Z,42.95
2022-08-05T04:10:28.168Z,43.06
2022-08-05T04:11:08.427Z,43.19
2022-08-05T04:11:47.387Z,43.18
2022-08-05T04:12:24.647Z,43.17
2022-08-05T04:13:00.103Z,43.49
2022-08-05T04:13:50.102Z,42.99
2022-08-05T04:14:30.480Z,42.93
2022-08-05T04:15:03.833Z,43.33
2022-08-05T04:15:36.773Z,43.23
2022-08-05T04:16:16.245Z,43.16
2022-08-05T04:16:57.613Z,43.20
2022-08-05T04:17:55.872Z,42.84
2022-08-05T04:18:26.658Z,42.91
2022-08-05T04:19:00.084Z,43.11
2022-08-05T04:19:45.098Z,43.16
2022-08-05T04:20:23.229Z,43.08
2022-08-05T04:20:56.452Z,42.86
2022-08-05T04:22:09.577Z,43.45
2022-08-05T04:22:23.888Z,42.93
2022-08-05T04:23:01.693Z,43.00
2022-08-05T04:24:05.643Z,43.38
2022-08-05T04:24:27.823Z,43.18
2022-08-05T04:25:04.357Z,43.18
2022-08-05T04:25:56.562Z,42.79
2022-08-05T04:26:32.489Z,43.12
2022-08-05T04:27:08.083Z,43.14
2022-08-05T04:27:43.817Z,43.20
2022-08-05T04:28:30.843Z,43.20
2022-08-05T04:29:07.651Z,43.06
2022-08-05T04:29:41.084Z,43.63
2022-08-05T04:30:14.274Z,43.31
2022-08-05T04:30:49.964Z,43.00
2022-08-05T04:31:27.596Z,43.55
2022-08-05T04:32:13.827Z,43.03
2022-08-05T04:32:52.363Z,43.70
2022-08-05T04:33:27.356Z,43.86
2022-08-05T04:34:32.859Z,43.49
2022-08-05T04:35:13.495Z,43.80
2022-08-05T04:36:16.417Z,43.51
2022-08-05T04:36:50.266Z,43.61
2022-08-05T04:38:00.687Z,43.68
2022-08-05T04:38:17.995Z,43.51
2022-08-05T04:38:51.008Z,43.53
2022-08-05T04:39:24.704Z,43.42
2022-08-05T04:40:02.727Z,43.88
2022-08-05T04:40:36.623Z,43.53
2022-08-05T04:41:09.320Z,43.58
2022-08-05T04:41:45.736Z,43.28
2022-08-05T04:42:20.380Z,43.32
2022-08-05T04:43:00.577Z,43.01
2022-08-05T04:43:32.983Z,42.70
2022-08-05T04:44:08.969Z,43.06
2022-08-05T04:44:44.922Z,42.70
2022-08-05T04:45:23.003Z,42.60
2022-08-05T04:46:12.372Z,42.75
2022-08-05T04:46:48.540Z,42.83
2022-08-05T04:47:21.088Z,42.68
2022-08-05T04:47:56.360Z,42.57
2022-08-05T04:48:30.135Z,42.56
2022-08-05T04:49:02.513Z,42.45
2022-08-05T04:50:01.097Z,42.36
2022-08-05T04:50:34.327Z,42.42
2022-08-05T04:51:12.619Z,42.38
2022-08-05T04:51:48.634Z,42.47
2022-08-05T04:52:34.365Z,42.44
2022-08-05T04:53:07.197Z,42.64
2022-08-05T04:53:43.555Z,42.51
2022-08-05T04:54:16.995Z,42.49
2022-08-05T04:54:50.064Z,42.62
2022-08-05T04:56:15.540Z,42.70
2022-08-05T04:56:34.673Z,42.81
2022-08-05T04:57:12.350Z,42.65
2022-08-05T04:57:47.709Z,42.76
2022-08-05T04:58:23.977Z,42.52
2022-08-05T04:58:57.127Z,42.14
2022-08-05T04:59:38.340Z,42.18
2022-08-05T05:00:15.931Z,42.32
2022-08-05T05:00:50.891Z,42.20
2022-08-05T05:02:04.119Z,42.07
2022-08-05T05:02:36.167Z,41.72
2022-08-05T05:03:18.787Z,41.80
2022-08-05T05:03:52.808Z,42.09
2022-08-05T05:04:25.631Z,41.50
2022-08-05T05:05:02.276Z,41.81
2022-08-05T05:06:35.997Z,41.83
2022-08-05T05:06:40.090Z,41.85
2022-08-05T05:07:17.529Z,41.78
2022-08-05T05:07:52.983Z,41.82
2022-08-05T05:08:31.784Z,41.66
2022-08-05T05:09:05.763Z,41.64
2022-08-05T05:09:38.185Z,41.84
2022-08-05T05:10:13.271Z,41.61
2022-08-05T05:10:47.331Z,41.61
2022-08-05T05:11:41.985Z,41.45
2022-08-05T05:12:24.451Z,41.73
2022-08-05T05:13:00.132Z,41.94
2022-08-05T05:13:43.376Z,41.87
2022-08-05T05:14:18.618Z,41.74
2022-08-05T05:15:03.762Z,41.60
2022-08-05T05:15:57.291Z,41.85
2022-08-05T05:16:31.485Z,41.71
2022-08-05T05:17:07.477Z,41.77
2022-08-05T05:17:56.694Z,41.73
2022-08-05T05:18:33.216Z,41.92
2022-08-05T05:19:18.860Z,41.63
2022-08-05T05:19:54.262Z,41.88
2022-08-05T05:20:28.479Z,41.68
2022-08-05T05:21:05.465Z,41.73
2022-08-05T05:21:38.054Z,41.77
2022-08-05T05:22:24.152Z,42.29
2022-08-05T05:23:08.343Z,42.26
2022-08-05T05:24:04.017Z,41.88
2022-08-05T05:24:57.012Z,42.00
2022-08-05T05:25:40.305Z,42.02
2022-08-05T05:26:16.246Z,42.01
2022-08-05T05:26:48.675Z,42.12
2022-08-05T05:27:24.744Z,42.09
2022-08-05T05:28:17.107Z,42.00
2022-08-05T05:28:49.517Z,42.22
2022-08-05T05:29:21.906Z,42.12
2022-08-05T05:30:04.395Z,42.43
2022-08-05T05:30:37.863Z,42.33
2022-08-05T05:31:12.879Z,42.36
2022-08-05T05:31:46.214Z,42.31
2022-08-05T05:32:18.962Z,42.27
2022-08-05T05:33:00.177Z,42.09
2022-08-05T05:33:58.643Z,42.56
2022-08-05T05:34:28.868Z,42.31
2022-08-05T05:35:01.320Z,42.31
2022-08-05T05:35:39.581Z,42.29
2022-08-05T05:36:14.770Z,42.30
2022-08-05T05:36:48.524Z,42.38
2022-08-05T05:37:29.277Z,42.32
2022-08-05T05:38:27.148Z,41.97
2022-08-05T05:39:03.774Z,42.21
2022-08-05T05:39:36.802Z,42.31
2022-08-05T05:40:11.235Z,42.24
2022-08-05T05:40:51.107Z,42.19
2022-08-05T05:41:23.947Z,42.08
2022-08-05T05:41:59.011Z,42.17
2022-08-05T05:42:31.406Z,42.18
2022-08-05T05:43:04.411Z,41.97
2022-08-05T05:43:56.630Z,41.95
2022-08-05T05:44:36.390Z,42.13
2022-08-05T05:45:14.183Z,42.39
2022-08-05T05:45:48.225Z,42.17
2022-08-05T05:46:23.569Z,42.14
2022-08-05T05:46:57.838Z,42.21
2022-08-05T05:48:07.167Z,42.27
2022-08-05T05:48:28.303Z,42.29
2022-08-05T05:49:06.483Z,42.24
2022-08-05T05:49:56.751Z,41.92
2022-08-05T05:50:42.541Z,41.88
2022-08-05T05:51:21.403Z,42.09
2022-08-05T05:51:56.683Z,42.05
2022-08-05T05:52:33.058Z,42.21
2022-08-05T05:53:21.202Z,41.96
2022-08-05T05:53:58.604Z,42.01
2022-08-05T05:54:50.289Z,42.02
2022-08-05T05:55:23.638Z,41.77
2022-08-05T05:56:25.936Z,42.00
2022-08-05T05:57:05.996Z,42.07
2022-08-05T05:57:52.715Z,42.05
2022-08-05T05:58:32.056Z,41.79
2022-08-05T05:59:09.661Z,41.92
2022-08-05T05:59:42.574Z,42.21
2022-08-05T06:00:17.594Z,42.07
2022-08-05T06:00:52.598Z,42.02
2022-08-05T06:01:25.029Z,42.19
2022-08-05T06:02:12.328Z,42.24
2022-08-05T06:02:45.876Z,42.01
2022-08-05T06:03:28.624Z,41.79
2022-08-05T06:04:16.024Z,42.43
2022-08-05T06:04:51.148Z,42.33
2022-08-05T06:05:23.607Z,42.30
2022-08-05T06:05:56.091Z,42.26
2022-08-05T06:06:34.669Z,42.47
2022-08-05T06:07:07.573Z,42.17
2022-08-05T06:08:01.143Z,42.33
2022-08-05T06:08:36.825Z,42.61
2022-08-05T06:09:16.757Z,42.16
2022-08-05T06:10:02.648Z,42.33
2022-08-05T06:10:49.126Z,42.12
2022-08-05T06:11:26.008Z,42.43
2022-08-05T06:12:02.006Z,42.63
2022-08-05T06:12:42.131Z,42.53
2022-08-05T06:13:14.836Z,42.46
2022-08-05T06:13:53.651Z,42.69
2022-08-05T06:14:28.023Z,42.39
2022-08-05T06:15:01.364Z,42.55
2022-08-05T06:16:30.168Z,42.47
2022-08-05T06:16:32.814Z,42.42
2022-08-05T06:17:22.002Z,42.69
2022-08-05T06:17:56.603Z,42.66
2022-08-05T06:18:31.889Z,42.70
2022-08-05T06:19:08.987Z,42.67
2022-08-05T06:19:56.831Z,42.38
2022-08-05T06:20:32.091Z,42.68
2022-08-05T06:21:05.178Z,42.66
2022-08-05T06:21:49.614Z,42.65
2022-08-05T06:22:24.060Z,42.72
2022-08-05T06:22:59.317Z,42.50
2022-08-05T06:23:44.194Z,42.44
2022-08-05T06:24:25.624Z,42.70
2022-08-05T06:24:58.496Z,42.67
2022-08-05T06:26:13.080Z,42.64
2022-08-05T06:26:25.994Z,42.65
2022-08-05T06:27:06.370Z,42.80
2022-08-05T06:28:11.537Z,42.27
2022-08-05T06:28:51.448Z,42.64
2022-08-05T06:29:46.285Z,42.70
2022-08-05T06:30:21.028Z,42.75
2022-08-05T06:30:53.827Z,42.61
2022-08-05T06:31:32.053Z,42.60
2022-08-05T06:32:21.467Z,42.63
2022-08-05T06:32:58.900Z,42.46
2022-08-05T06:34:06.754Z,42.50
2022-08-05T06:34:26.427Z,42.49
2022-08-05T06:35:05.971Z,42.29
2022-08-05T06:36:07.935Z,42.43
2022-08-05T06:36:58.061Z,42.37
2022-08-05T06:37:56.505Z,42.31
2022-08-05T06:38:36.464Z,42.41
2022-08-05T06:39:09.538Z,42.27
2022-08-05T06:39:44.645Z,42.13
2022-08-05T06:40:18.512Z,42.35
2022-08-05T06:40:53.671Z,42.53
2022-08-05T06:41:28.670Z,42.10
2022-08-05T06:42:07.574Z,42.32
2022-08-05T06:42:40.346Z,42.23
2022-08-05T06:43:57.714Z,42.33
2022-08-05T06:44:07.904Z,42.10
2022-08-05T06:44:43.018Z,42.43
2022-08-05T06:46:02.983Z,42.51
2022-08-05T06:46:16.920Z,42.54
2022-08-05T06:46:50.770Z,42.48
2022-08-05T06:48:11.727Z,42.48
2022-08-05T06:48:54.648Z,42.61
2022-08-05T06:49:10.954Z,42.22
2022-08-05T06:50:01.297Z,42.45
2022-08-05T06:50:37.643Z,42.67
2022-08-05T06:51:12.001Z,42.43
2022-08-05T06:51:59.123Z,42.67
2022-08-05T06:52:36.629Z,42.63
2022-08-05T06:53:22.630Z,42.88
2022-08-05T06:54:02.371Z,43.08
2022-08-05T06:54:37.588Z,42.53
2022-08-05T06:55:10.159Z,42.82
2022-08-05T06:55:43.231Z,42.90
2022-08-05T06:56:26.796Z,42.67
2022-08-05T06:57:57.282Z,43.01
2022-08-05T06:58:02.724Z,42.71
2022-08-05T06:58:46.882Z,43.10
2022-08-05T06:59:19.295Z,42.73
2022-08-05T06:59:57.938Z,42.69
2022-08-05T07:00:31.542Z,42.53
2022-08-05T07:01:05.474Z,42.89
2022-08-05T07:01:42.357Z,42.41
2022-08-05T07:02:15.050Z,42.87
2022-08-05T07:02:48.094Z,42.53
2022-08-05T07:03:32.762Z,42.58
2022-08-05T07:04:05.664Z,42.44
2022-08-05T07:04:40.746Z,42.73
2022-08-05T07:05:18.517Z,42.55
2022-08-05T07:05:54.268Z,42.42
2022-08-05T07:06:32.292Z,42.21
2022-08-05T07:07:07.947Z,42.77
2022-08-05T07:07:44.085Z,42.03
2022-08-05T07:08:19.722Z,42.34
2022-08-05T07:08:59.095Z,42.12
2022-08-05T07:09:37.323Z,42.23
2022-08-05T07:10:14.778Z,42.19
2022-08-05T07:10:52.779Z,42.46
2022-08-05T07:11:28.857Z,42.13
2022-08-05T07:12:01.214Z,42.29
2022-08-05T07:12:51.177Z,41.95
2022-08-05T07:13:59.218Z,42.16
2022-08-05T07:14:46.820Z,42.08
2022-08-05T07:16:01.995Z,41.98
2022-08-05T07:18:01.973Z,42.18
2022-08-05T07:18:02.049Z,42.22
2022-08-05T07:18:30.864Z,42.14
2022-08-05T07:19:06.707Z,41.98
2022-08-05T07:20:37.130Z,42.63
2022-08-05T07:21:14.031Z,42.05
2022-08-05T07:22:01.579Z,42.58
2022-08-05T07:22:35.218Z,42.40
2022-08-05T07:23:07.698Z,42.63
2022-08-05T07:23:49.866Z,42.48
2022-08-05T07:24:24.811Z,42.47
2022-08-05T07:25:21.891Z,42.63
2022-08-05T07:25:57.168Z,42.47
2022-08-05T07:26:29.703Z,42.48
2022-08-05T07:27:03.786Z,42.65
2022-08-05T07:27:58.206Z,42.50
2022-08-05T07:28:35.084Z,42.67
2022-08-05T07:29:10.454Z,42.52
2022-08-05T07:30:27.919Z,42.46
2022-08-05T07:30:40.774Z,42.33
2022-08-05T07:31:13.181Z,42.59
2022-08-05T07:31:54.490Z,42.60
2022-08-05T07:32:30.380Z,42.48
2022-08-05T07:33:04.997Z,42.36
2022-08-05T07:33:44.123Z,42.48
2022-08-05T07:34:16.604Z,42.52
2022-08-05T07:34:57.750Z,42.52
2022-08-05T07:36:04.135Z,42.26
2022-08-05T07:36:28.194Z,42.34
2022-08-05T07:37:04.987Z,42.47
2022-08-05T07:37:39.498Z,42.48
2022-08-05T07:38:33.491Z,42.09
2022-08-05T07:39:24.857Z,42.72
2022-08-05T07:40:04.088Z,42.50
2022-08-05T07:41:01.474Z,42.61
2022-08-05T07:42:14.569Z,42.48
2022-08-05T07:42:44.498Z,42.57
2022-08-05T07:43:20.902Z,42.20
2022-08-05T07:43:56.227Z,42.21
2022-08-05T07:44:31.776Z,42.29
2022-08-05T07:45:09.337Z,42.36
2022-08-05T07:45:57.236Z,42.26
2022-08-05T07:46:35.086Z,42.39
2022-08-05T07:47:07.869Z,42.43
2022-08-05T07:47:42.779Z,42.26
2022-08-05T07:49:00.468Z,42.59
2022-08-05T07:49:14.053Z,42.39
2022-08-05T07:49:54.428Z,42.45
2022-08-05T07:50:28.855Z,42.40
2022-08-05T07:51:23.492Z,42.33
2022-08-05T07:52:04.302Z,42.23
2022-08-05T07:52:41.751Z,42.43
2022-08-05T07:53:16.639Z,42.52
2022-08-05T07:53:50.843Z,42.75
2022-08-05T07:54:31.536Z,42.74
2022-08-05T07:55:16.108Z,42.67
2022-08-05T07:56:05.813Z,42.43
2022-08-05T07:57:02.527Z,42.43
2022-08-05T07:57:58.977Z,42.42
2022-08-05T07:58:57.766Z,42.78
2022-08-05T07:59:38.392Z,42.27
2022-08-05T08:00:15.085Z,42.33
2022-08-05T08:00:50.289Z,42.67
2022-08-05T08:01:25.375Z,42.54
2022-08-05T08:02:03.208Z,42.15
2022-08-05T08:03:14.787Z,42.65
2022-08-05T08:03:44.278Z,42.60
2022-08-05T08:04:34.294Z,42.79
2022-08-05T08:05:11.382Z,42.75
2022-08-05T08:05:49.749Z,42.71
2022-08-05T08:06:22.418Z,42.82
2022-08-05T08:07:05.395Z,42.63
2022-08-05T08:07:59.197Z,42.45
2022-08-05T08:08:35.627Z,42.67
2022-08-05T08:09:07.969Z,42.74
2022-08-05T08:09:40.346Z,42.70
2022-08-05T08:10:15.303Z,42.86
2022-08-05T08:10:55.718Z,42.94
2022-08-05T08:11:47.017Z,42.81
2022-08-05T08:12:37.350Z,42.60
2022-08-05T08:13:12.275Z,42.91
2022-08-05T08:14:00.410Z,42.92
2022-08-05T08:14:33.370Z,42.69
2022-08-05T08:15:09.625Z,43.00
2022-08-05T08:16:34.774Z,42.58
2022-08-05T08:16:50.736Z,43.09
2022-08-05T08:17:24.041Z,42.93
2022-08-05T08:18:05.028Z,42.83
2022-08-05T08:18:40.584Z,42.79
2022-08-05T08:19:37.947Z,43.02
2022-08-05T08:20:43.862Z,42.65
2022-08-05T08:21:04.540Z,42.86
2022-08-05T08:21:42.820Z,42.60
2022-08-05T08:22:17.047Z,42.60
2022-08-05T08:22:59.498Z,42.92
2022-08-05T08:24:01.800Z,42.82
2022-08-05T08:24:51.429Z,42.89
2022-08-05T08:25:27.178Z,43.06
2022-08-05T08:26:26.690Z,42.91
2022-08-05T08:27:02.674Z,42.84
2022-08-05T08:27:47.545Z,43.04
2022-08-05T08:28:36.697Z,43.44
2022-08-05T08:29:45.483Z,43.13
2022-08-05T08:30:29.672Z,43.22
2022-08-05T08:31:07.387Z,42.88
2022-08-05T08:31:39.799Z,42.55
2022-08-05T08:32:13.814Z,42.69
2022-08-05T08:32:53.550Z,42.84
2022-08-05T08:33:27.227Z,42.42
2022-08-05T08:34:03.117Z,42.70
2022-08-05T08:34:35.547Z,42.46
2022-08-05T08:35:13.572Z,42.38
2022-08-05T08:35:53.180Z,42.51
2022-08-05T08:36:47.603Z,42.04
2022-08-05T08:37:27.936Z,42.69
2022-08-05T08:38:03.410Z,42.33
2022-08-05T08:38:37.585Z,41.86
2022-08-05T08:39:15.098Z,42.27
2022-08-05T08:39:49.702Z,42.31
2022-08-05T08:40:25.574Z,42.27
2022-08-05T08:40:58.370Z,42.36
2022-08-05T08:41:52.361Z,42.04
2022-08-05T08:42:33.951Z,42.29
2022-08-05T08:45:21.420Z,42.12
2022-08-05T08:45:24.265Z,42.22
2022-08-05T08:45:24.391Z,42.14
2022-08-05T08:45:59.937Z,42.11
2022-08-05T08:46:35.356Z,42.35